Thunder radar more information blitzortung!


Radar de pluja more information rain snow radar


Visita la nostra xarxa de llocs de meteo:

Template documentation
and downloads

And another site



No particular awareness of the weather is required.    There are no Weather-warnings

Pagina Historial Weather Underground text

Diari Resum May 10, 2016 Unitats:  Mètric    Imperial   Tant
« Previous Dia
SegĂźent Dia »
Diari Setmana Mensual Anual Personalitzada
  Maxima: Minima: Media:
Temperatura: 19.8 °C 10.4 °C 15.4 °C
Punt de rosada: 13.9 °C 9.2 °C 11.7 °C
Humitat: 93 % 61 % 79 %
Wind Speed: 13.0 km/h 0.0 km/h 4.2 km/h
RĂ fegues de vent: 13.0 km/h - -
Vent:- - ESE
Pression baro: 1011.7 hPa 1007.0 hPa -
Precipitacions: 4.3 mm    
Historical Graphs
 
 
Dades de taula per May 10, 2016
Temps Temperatura Punt de rosada Pression baro Vent Wind Speed RĂ fegues de vent Humitat Rainfall Rate (Hourly)
00:00 13.2 °C 11.3 °C 1011.7 hPa Calm     88 % 4.1 mm
00:05 13.1 °C 11.3 °C 1011.7 hPa NE 4.2 km/h 4.2 km/h 89 % 4.1 mm
00:10 13.0 °C 11.2 °C 1010.0 hPa NNE 3.7 km/h 3.7 km/h 89 % 4.1 mm
05:35 13.6 °C 11.7 °C 1011.7 hPa NE 3.2 km/h 3.2 km/h 88 % 0.0 mm
10:41 13.7 °C 11.7 °C 1010.7 hPa NE 7.4 km/h 7.4 km/h 88 % 0.0 mm
10:46 13.8 °C 11.8 °C 1010.7 hPa NNE 5.8 km/h 5.8 km/h 88 % 0.0 mm
10:51 13.9 °C 11.8 °C 1010.7 hPa ENE 3.7 km/h 3.7 km/h 87 % 0.0 mm
10:56 14.1 °C 11.9 °C 1011.7 hPa East 5.6 km/h 5.6 km/h 87 % 0.0 mm
11:01 14.2 °C 11.9 °C 1011.7 hPa NE 5.6 km/h 5.6 km/h 86 % 0.0 mm
11:06 14.5 °C 12.2 °C 1011.7 hPa ENE 3.7 km/h   86 % 0.0 mm
11:11 14.4 °C 11.9 °C 1011.7 hPa NNE 2.6 km/h 3.2 km/h 85 % 0.0 mm
11:16 14.7 °C 12.2 °C 1011.7 hPa ENE 3.7 km/h 4.2 km/h 85 % 0.0 mm
11:21 14.6 °C 11.9 °C 1011.7 hPa ENE 5.6 km/h 5.6 km/h 84 % 0.0 mm
11:26 14.8 °C 12.1 °C 1011.7 hPa ENE 3.7 km/h 3.7 km/h 84 % 0.0 mm
11:31 15.0 °C 12.1 °C 1011.7 hPa NNE 5.6 km/h 5.6 km/h 83 % 0.0 mm
11:36 15.6 °C 12.7 °C 1011.7 hPa ENE 6.9 km/h 6.9 km/h 83 % 0.0 mm
11:41 15.9 °C 12.8 °C 1010.7 hPa North 5.6 km/h 5.6 km/h 82 % 0.0 mm
11:46 16.2 °C 13.1 °C 1010.7 hPa NNE 5.8 km/h 5.8 km/h 82 % 0.0 mm
11:51 16.5 °C 13.2 °C 1010.7 hPa North 5.8 km/h 5.8 km/h 81 % 0.0 mm
11:56 17.0 °C 13.3 °C 1011.7 hPa ENE 5.6 km/h 5.6 km/h 79 % 0.0 mm
12:01 17.1 °C 13.1 °C 1011.7 hPa ENE 7.9 km/h 7.9 km/h 77 % 0.0 mm
12:06 17.1 °C 13.1 °C 1011.7 hPa West 9.3 km/h 9.3 km/h 77 % 0.0 mm
12:11 17.1 °C 13.1 °C 1010.7 hPa NNE 6.4 km/h 6.4 km/h 77 % 0.0 mm
12:16 17.3 °C 13.0 °C 1010.7 hPa ENE 9.3 km/h 9.3 km/h 76 % 0.0 mm
12:21 17.1 °C 12.6 °C 1010.7 hPa NE 7.4 km/h 7.4 km/h 75 % 0.0 mm
12:26 17.4 °C 12.9 °C 1010.7 hPa ENE 3.7 km/h 3.7 km/h 75 % 0.0 mm
12:31 17.6 °C 13.1 °C 1010.7 hPa ENE 6.1 km/h 6.1 km/h 75 % 0.0 mm
12:36 17.6 °C 13.1 °C 1010.7 hPa WNW 3.2 km/h   75 % 0.0 mm
12:41 17.8 °C 13.3 °C 1010.7 hPa WSW 4.7 km/h 4.7 km/h 75 % 0.0 mm
12:46 18.1 °C 12.9 °C 1010.7 hPa Calm     72 % 0.0 mm
12:51 18.7 °C 13.9 °C 1010.7 hPa WSW 3.7 km/h 3.7 km/h 74 % 0.0 mm
12:56 19.2 °C 13.8 °C 1010.7 hPa ESE 5.6 km/h 5.6 km/h 71 % 0.0 mm
13:01 19.5 °C 13.7 °C 1010.7 hPa SW 3.7 km/h 3.7 km/h 69 % 0.0 mm
13:06 19.5 °C 13.0 °C 1010.7 hPa ESE 9.5 km/h 9.5 km/h 66 % 0.0 mm
13:11 19.2 °C 12.2 °C 1010.7 hPa SSW 5.6 km/h 5.6 km/h 64 % 0.0 mm
13:16 19.3 °C 12.6 °C 1010.7 hPa ESE 7.4 km/h 7.4 km/h 65 % 0.0 mm
13:21 19.4 °C 12.7 °C 1010.7 hPa NE 7.4 km/h 7.4 km/h 65 % 0.0 mm
13:26 19.3 °C 12.6 °C 1010.0 hPa ENE 9.3 km/h 9.3 km/h 65 % 0.0 mm
13:31 19.2 °C 12.7 °C 1010.0 hPa ESE 7.4 km/h 7.4 km/h 66 % 0.0 mm
13:36 19.2 °C 12.4 °C 1010.0 hPa NE 5.6 km/h 5.6 km/h 65 % 0.0 mm
13:41 19.1 °C 12.1 °C 1010.7 hPa ENE 7.4 km/h 7.4 km/h 64 % 0.0 mm
13:51 19.0 °C 11.8 °C 1010.7 hPa ESE 5.8 km/h 5.8 km/h 63 % 0.0 mm
13:56 19.0 °C 11.8 °C 1010.7 hPa ENE 5.6 km/h 5.6 km/h 63 % 0.0 mm
14:01 19.0 °C 11.6 °C 1010.7 hPa ENE 5.6 km/h 6.1 km/h 62 % 0.0 mm
14:06 19.1 °C 11.9 °C 1010.7 hPa ENE 3.9 km/h 3.9 km/h 63 % 0.0 mm
14:11 19.1 °C 11.9 °C 1010.0 hPa East 5.6 km/h 5.6 km/h 63 % 0.0 mm
14:16 19.1 °C 11.7 °C 1010.0 hPa ESE 5.6 km/h 5.6 km/h 62 % 0.0 mm
14:21 19.2 °C 11.7 °C 1010.0 hPa ENE 5.6 km/h 5.6 km/h 62 % 0.0 mm
14:26 19.2 °C 11.5 °C 1010.0 hPa NNE 1.9 km/h   61 % 0.0 mm
14:31 19.4 °C 11.7 °C 1010.0 hPa Calm     61 % 0.0 mm
14:36 19.6 °C 11.9 °C 1010.0 hPa East 3.9 km/h 3.9 km/h 61 % 0.0 mm
14:41 19.6 °C 11.9 °C 1010.0 hPa Calm     61 % 0.0 mm
14:46 19.8 °C 12.3 °C 1010.0 hPa NNW 2.3 km/h   62 % 0.0 mm
14:51 19.6 °C 12.1 °C 1010.0 hPa ENE 5.6 km/h 5.6 km/h 62 % 0.0 mm
14:56 19.3 °C 12.1 °C 1010.0 hPa NNE 1.9 km/h 1.9 km/h 63 % 0.0 mm
15:01 19.2 °C 12.2 °C 1010.0 hPa NW 3.9 km/h 3.9 km/h 64 % 0.0 mm
15:06 19.0 °C 12.1 °C 1010.0 hPa ENE 3.7 km/h 3.7 km/h 64 % 0.0 mm
15:11 18.9 °C 11.9 °C 1009.0 hPa NNE 1.9 km/h 1.9 km/h 64 % 0.0 mm
15:16 18.8 °C 12.3 °C 1009.0 hPa NNW 1.9 km/h 1.9 km/h 66 % 0.0 mm
15:21 18.7 °C 12.4 °C 1009.0 hPa NNW 1.9 km/h   67 % 0.0 mm
15:26 18.6 °C 12.8 °C 1010.0 hPa WSW 3.9 km/h 3.9 km/h 69 % 0.0 mm
15:31 18.4 °C 12.6 °C 1010.0 hPa WSW 2.3 km/h   69 % 0.0 mm
15:36 18.5 °C 12.7 °C 1010.0 hPa WSW 3.7 km/h 3.7 km/h 69 % 0.0 mm
15:41 18.4 °C 12.2 °C 1010.0 hPa WSW 9.3 km/h 9.3 km/h 67 % 0.0 mm
15:46 18.3 °C 12.3 °C 1010.0 hPa West 3.7 km/h 3.7 km/h 68 % 0.0 mm
15:51 18.1 °C 12.1 °C 1010.0 hPa West 5.6 km/h 5.6 km/h 68 % 0.0 mm
15:56 18.0 °C 12.4 °C 1010.0 hPa West 5.3 km/h   70 % 0.0 mm
16:01 17.9 °C 12.3 °C 1010.0 hPa SW 3.7 km/h 3.7 km/h 70 % 0.0 mm
16:06 17.9 °C 12.6 °C 1010.0 hPa SW 1.9 km/h   71 % 0.0 mm
16:11 17.9 °C 13.0 °C 1010.0 hPa Calm     73 % 0.0 mm
16:16 17.9 °C 12.8 °C 1010.0 hPa Calm     72 % 0.0 mm
16:21 17.9 °C 12.8 °C 1010.0 hPa Calm     72 % 0.0 mm
16:26 18.1 °C 13.4 °C 1010.0 hPa Calm     74 % 0.0 mm
16:36 18.2 °C 13.5 °C 1010.0 hPa SE 2.3 km/h   74 % 0.0 mm
16:41 18.3 °C 13.4 °C 1010.0 hPa NE 4.2 km/h   73 % 0.0 mm
16:46 18.1 °C 12.8 °C 1010.0 hPa NE 3.7 km/h 3.7 km/h 71 % 0.0 mm
16:51 18.0 °C 12.9 °C 1010.0 hPa NE 5.6 km/h 5.6 km/h 72 % 0.0 mm
16:56 18.0 °C 13.3 °C 1010.0 hPa NE 7.4 km/h 7.4 km/h 74 % 0.0 mm
17:01 18.0 °C 13.1 °C 1010.0 hPa NNE 5.8 km/h 5.8 km/h 73 % 0.0 mm
17:06 17.9 °C 13.0 °C 1010.0 hPa NE 6.4 km/h 6.4 km/h 73 % 0.0 mm
17:11 17.9 °C 12.8 °C 1009.0 hPa ENE 7.4 km/h 7.4 km/h 72 % 0.0 mm
17:16 17.8 °C 12.7 °C 1009.0 hPa ENE 5.0 km/h 5.0 km/h 72 % 0.0 mm
17:21 17.7 °C 12.4 °C 1009.0 hPa NE 7.4 km/h 7.4 km/h 71 % 0.0 mm
17:26 17.6 °C 12.3 °C 1009.0 hPa NE 9.3 km/h 9.3 km/h 71 % 0.0 mm
17:31 17.6 °C 12.5 °C 1009.0 hPa NNE 7.4 km/h 7.4 km/h 72 % 0.0 mm
17:36 17.4 °C 12.3 °C 1009.0 hPa ENE 7.4 km/h 7.4 km/h 72 % 0.0 mm
17:41 17.2 °C 12.1 °C 1008.0 hPa NNE 13.0 km/h 13.0 km/h 72 % 0.0 mm
17:46 17.1 °C 12.0 °C 1008.0 hPa NNE 5.6 km/h 5.6 km/h 72 % 0.0 mm
17:51 17.1 °C 12.0 °C 1008.0 hPa WNW 3.7 km/h 3.7 km/h 72 % 0.0 mm
17:56 16.9 °C 12.4 °C 1010.0 hPa SW 3.7 km/h 3.7 km/h 75 % 0.0 mm
18:01 16.9 °C 12.7 °C 1010.0 hPa SW 3.7 km/h 3.7 km/h 76 % 0.0 mm
18:06 16.6 °C 12.3 °C 1010.0 hPa NNE 3.2 km/h   76 % 0.0 mm
18:11 16.5 °C 12.4 °C 1010.0 hPa NE 7.4 km/h 7.4 km/h 77 % 0.0 mm
18:16 16.4 °C 12.3 °C 1010.0 hPa NNE 9.3 km/h 9.3 km/h 77 % 0.0 mm
18:21 16.3 °C 12.3 °C 1010.0 hPa NNE 9.3 km/h 9.3 km/h 77 % 0.0 mm
18:26 16.3 °C 12.3 °C 1008.0 hPa NNE 6.9 km/h 6.9 km/h 77 % 0.0 mm
18:31 15.9 °C 11.9 °C 1008.0 hPa NNE 7.4 km/h 7.4 km/h 77 % 0.0 mm
18:36 15.9 °C 11.9 °C 1008.0 hPa North 7.4 km/h 7.4 km/h 77 % 0.0 mm
18:41 15.9 °C 11.9 °C 1008.0 hPa ENE 13.0 km/h 13.0 km/h 77 % 0.0 mm
18:46 15.8 °C 11.8 °C 1008.0 hPa ESE 5.6 km/h 5.6 km/h 77 % 0.0 mm
18:51 15.8 °C 11.8 °C 1008.0 hPa NE 5.6 km/h 5.6 km/h 77 % 0.0 mm
18:56 15.8 °C 11.2 °C 1008.0 hPa ENE 11.1 km/h 11.1 km/h 74 % 0.0 mm
19:01 15.8 °C 11.2 °C 1008.0 hPa East 5.0 km/h 5.0 km/h 74 % 0.0 mm
19:06 15.8 °C 11.2 °C 1008.0 hPa NNE 7.4 km/h 7.4 km/h 74 % 0.0 mm
19:11 15.7 °C 11.1 °C 1009.0 hPa ENE 11.1 km/h 11.1 km/h 74 % 0.0 mm
19:15 12.8 °C 11.2 °C 1010.0 hPa ENE 3.2 km/h 3.2 km/h 90 % 0.0 mm
19:16 15.7 °C 10.9 °C 1009.0 hPa NE 9.3 km/h 9.3 km/h 73 % 0.0 mm
19:21 15.6 °C 10.8 °C 1009.0 hPa ENE 5.6 km/h 5.6 km/h 73 % 0.0 mm
19:25 12.8 °C 11.2 °C 1009.0 hPa Calm   4.8 km/h 90 % 0.0 mm
19:26 15.6 °C 10.8 °C 1008.0 hPa NNE 7.4 km/h 7.4 km/h 73 % 0.0 mm
19:31 15.6 °C 10.8 °C 1008.0 hPa NNE 5.6 km/h 5.6 km/h 73 % 0.0 mm
19:35 12.7 °C 11.3 °C 1009.0 hPa West 1.6 km/h 3.2 km/h 91 % 0.0 mm
19:37 15.5 °C 10.7 °C 1008.0 hPa NNW 3.7 km/h 3.7 km/h 73 % 0.0 mm
19:42 15.4 °C 11.0 °C 1008.0 hPa WNW 1.9 km/h 1.9 km/h 75 % 0.0 mm
19:45 12.5 °C 11.1 °C 1007.0 hPa Calm   4.8 km/h 91 % 0.0 mm
19:47 15.3 °C 11.1 °C 1008.0 hPa Calm     76 % 0.0 mm
19:52 15.1 °C 11.1 °C 1008.0 hPa Calm     77 % 0.0 mm
19:55 12.4 °C 10.9 °C 1009.0 hPa Calm     91 % 0.0 mm
19:57 15.0 °C 11.0 °C 1008.0 hPa Calm     77 % 0.0 mm
20:02 14.8 °C 11.0 °C 1008.0 hPa SW 3.7 km/h   78 % 0.0 mm
20:05 12.3 °C 10.9 °C 1009.0 hPa Calm     91 % 0.0 mm
20:07 14.6 °C 11.0 °C 1008.0 hPa SW 1.9 km/h   79 % 0.0 mm
20:12 14.5 °C 10.9 °C 1009.0 hPa ENE 3.7 km/h 3.7 km/h 79 % 0.0 mm
20:15 12.2 °C 10.8 °C 1009.0 hPa SW 1.6 km/h 3.2 km/h 91 % 0.0 mm
20:17 14.4 °C 11.0 °C 1009.0 hPa ENE 3.7 km/h 3.7 km/h 80 % 0.0 mm
20:22 14.4 °C 11.0 °C 1009.0 hPa East 4.2 km/h 4.2 km/h 80 % 0.0 mm
20:25 12.1 °C 10.5 °C 1009.0 hPa SW 3.2 km/h 3.2 km/h 90 % 0.0 mm
20:27 14.4 °C 11.0 °C 1009.0 hPa NE 4.2 km/h 4.2 km/h 80 % 0.0 mm
20:32 14.3 °C 11.1 °C 1009.0 hPa NE 2.3 km/h 2.3 km/h 81 % 0.0 mm
20:35 12.2 °C 10.8 °C 1009.0 hPa Calm   3.2 km/h 91 % 0.0 mm
20:37 14.3 °C 11.1 °C 1009.0 hPa Calm     81 % 0.0 mm
20:42 14.3 °C 11.1 °C 1009.0 hPa ESE 1.9 km/h 1.9 km/h 81 % 0.0 mm
20:45 12.1 °C 10.8 °C 1008.0 hPa Calm     92 % 0.0 mm
20:47 14.2 °C 10.8 °C 1009.0 hPa SW 4.7 km/h 4.7 km/h 80 % 0.0 mm
20:52 14.0 °C 11.2 °C 1009.0 hPa SW 5.6 km/h 5.6 km/h 83 % 0.0 mm
20:55 12.0 °C 10.7 °C 1008.0 hPa Calm     92 % 0.0 mm
20:57 13.9 °C 11.4 °C 1010.0 hPa SW 9.3 km/h 9.3 km/h 85 % 1.0 mm
21:02 13.8 °C 11.5 °C 1010.0 hPa SSW 9.3 km/h 9.3 km/h 86 % 1.0 mm
21:05 12.0 °C 10.9 °C 1008.0 hPa Calm     93 % 0.0 mm
21:07 13.8 °C 11.5 °C 1010.0 hPa SW 3.9 km/h 3.9 km/h 86 % 2.3 mm
21:12 13.8 °C 11.5 °C 1010.0 hPa SW 3.9 km/h 3.9 km/h 86 % 2.3 mm
21:15 11.8 °C 10.7 °C 1008.0 hPa Calm   1.6 km/h 93 % 0.0 mm
21:17 13.8 °C 11.5 °C 1010.0 hPa WSW 3.7 km/h 3.7 km/h 86 % 3.3 mm
21:22 13.8 °C 11.5 °C 1010.0 hPa ENE 5.6 km/h 5.6 km/h 86 % 4.3 mm
21:25 11.7 °C 10.6 °C 1009.0 hPa Calm     93 % 0.0 mm
21:27 13.8 °C 11.5 °C 1009.0 hPa NNE 13.0 km/h 13.0 km/h 86 % 4.3 mm
21:32 13.8 °C 11.5 °C 1009.0 hPa NE 6.9 km/h 6.9 km/h 86 % 4.3 mm
21:35 11.6 °C 10.5 °C 1009.0 hPa Calm     93 % 0.0 mm
21:37 13.8 °C 11.5 °C 1009.0 hPa NNE 9.3 km/h 9.3 km/h 86 % 4.3 mm
21:42 13.0 °C 11.2 °C 1008.0 hPa ENE 13.0 km/h 13.0 km/h 89 % 4.3 mm
21:45 11.2 °C 9.8 °C 1008.0 hPa NE 1.6 km/h 3.2 km/h 91 % 0.0 mm
21:47 13.0 °C 11.2 °C 1008.0 hPa ENE 5.0 km/h 5.0 km/h 89 % 4.3 mm
21:52 13.0 °C 11.2 °C 1008.0 hPa NNE 5.6 km/h 5.6 km/h 89 % 4.3 mm
21:55 11.1 °C 9.7 °C 1007.0 hPa SW 1.6 km/h 3.2 km/h 91 % 0.0 mm
21:57 13.0 °C 11.2 °C 1008.0 hPa ENE 3.7 km/h 3.7 km/h 89 % 3.3 mm
22:03 13.0 °C 11.2 °C 1008.0 hPa NE 5.6 km/h 5.6 km/h 89 % 3.3 mm
22:05 11.1 °C 9.7 °C 1007.0 hPa SW 1.6 km/h 3.2 km/h 91 % 0.0 mm
22:08 13.0 °C 11.2 °C 1008.0 hPa Calm     89 % 2.0 mm
22:13 13.0 °C 11.4 °C 1008.0 hPa NNE 4.2 km/h 4.2 km/h 90 % 2.0 mm
22:15 11.0 °C 9.6 °C 1007.0 hPa SW 1.6 km/h 3.2 km/h 91 % 0.0 mm
22:18 13.0 °C 11.2 °C 1008.0 hPa NNE 7.4 km/h 7.4 km/h 89 % 1.0 mm
22:25 11.0 °C 9.6 °C 1007.0 hPa SW 3.2 km/h 3.2 km/h 91 % 0.0 mm
22:28 13.1 °C 11.3 °C 1008.0 hPa NE 7.4 km/h 7.4 km/h 89 % 0.0 mm
22:33 13.0 °C 11.2 °C 1008.0 hPa WNW 3.7 km/h   89 % 0.0 mm
22:35 11.0 °C 9.6 °C 1007.0 hPa WSW 1.6 km/h 3.2 km/h 91 % 0.0 mm
22:38 13.0 °C 11.2 °C 1009.0 hPa WNW 1.9 km/h   89 % 0.0 mm
22:43 13.0 °C 11.2 °C 1009.0 hPa Calm     89 % 0.0 mm
22:45 10.8 °C 9.6 °C 1007.0 hPa Calm   4.8 km/h 92 % 0.0 mm
22:48 13.0 °C 11.2 °C 1009.0 hPa West 3.7 km/h 3.7 km/h 89 % 0.0 mm
22:53 13.0 °C 11.1 °C 1010.0 hPa WSW 6.1 km/h 6.1 km/h 88 % 0.0 mm
22:55 10.6 °C 9.3 °C 1007.0 hPa Calm     92 % 0.0 mm
22:59 12.9 °C 11.1 °C 1010.0 hPa WSW 3.7 km/h 3.7 km/h 89 % 0.0 mm
23:04 12.9 °C 11.1 °C 1010.0 hPa SW 3.7 km/h 3.7 km/h 89 % 0.0 mm
23:05 10.7 °C 9.4 °C 1007.0 hPa SW 1.6 km/h 4.8 km/h 92 % 0.0 mm
23:14 12.8 °C 11.2 °C 1010.0 hPa SSW 1.9 km/h   90 % 0.0 mm
23:15 10.5 °C 9.3 °C 1007.0 hPa Calm   3.2 km/h 92 % 0.0 mm
23:24 12.9 °C 11.4 °C 1010.0 hPa ESE 3.7 km/h 3.7 km/h 91 % 0.0 mm
23:25 10.4 °C 9.2 °C 1007.0 hPa SW 1.6 km/h 4.8 km/h 92 % 0.0 mm
23:29 12.9 °C 11.4 °C 1010.0 hPa Calm     91 % 0.0 mm
23:34 12.8 °C 11.4 °C 1010.0 hPa Calm     91 % 0.0 mm
23:35 10.4 °C 9.2 °C 1007.0 hPa WSW 1.6 km/h 3.2 km/h 92 % 0.0 mm
23:39 12.9 °C 11.4 °C 1010.0 hPa ENE 1.9 km/h 1.9 km/h 91 % 0.0 mm
23:44 12.9 °C 11.6 °C 1010.0 hPa ENE 1.9 km/h   92 % 0.0 mm
23:45 10.6 °C 9.3 °C 1007.0 hPa West 1.6 km/h 4.8 km/h 92 % 0.0 mm
23:49 12.9 °C 11.6 °C 1010.0 hPa Calm     92 % 0.0 mm
23:54 12.8 °C 11.6 °C 1009.0 hPa Calm     92 % 0.0 mm
23:55 10.5 °C 9.4 °C 1007.0 hPa Calm     93 % 0.0 mm
23:59 12.8 °C 11.6 °C 1009.0 hPa Calm     92 % 0.0 mm
Meteo Sesrovires
Elogis d' Weather Underground - 3.5 mb

Guio original per  Jim McMurry - jmcmurry@mwt.net Adaptat per a la plantilla per  Wim van der Kuil - Leuven-Template.eu

Trobareu la nostra informacio del temps tambe a:

Weather Underground

AWEKAS